sensor_id;sensor_type;location;lat;lon;timestamp;pressure;altitude;pressure_sealevel;temperature;humidity
74163;BME280;62515;52.758;5.076;2023-02-20T00:02:15;102448.13;;;5.60;100.00
74163;BME280;62515;52.758;5.076;2023-02-20T00:04:42;102446.25;;;5.65;100.00
74163;BME280;62515;52.758;5.076;2023-02-20T00:07:09;102446.25;;;5.65;100.00
74163;BME280;62515;52.758;5.076;2023-02-20T00:09:36;102431.19;;;5.69;100.00
74163;BME280;62515;52.758;5.076;2023-02-20T00:12:04;102416.00;;;5.75;100.00
74163;BME280;62515;52.758;5.076;2023-02-20T00:14:31;102414.31;;;5.74;100.00
74163;BME280;62515;52.758;5.076;2023-02-20T00:16:58;102418.59;;;5.78;100.00
74163;BME280;62515;52.758;5.076;2023-02-20T00:19:25;102415.88;;;5.82;100.00
74163;BME280;62515;52.758;5.076;2023-02-20T00:21:51;102414.06;;;5.84;100.00
74163;BME280;62515;52.758;5.076;2023-02-20T00:24:18;102405.41;;;5.78;100.00
74163;BME280;62515;52.758;5.076;2023-02-20T00:26:45;102408.72;;;5.87;100.00
74163;BME280;62515;52.758;5.076;2023-02-20T00:29:15;102392.03;;;5.85;100.00
74163;BME280;62515;52.758;5.076;2023-02-20T00:31:42;102388.50;;;5.84;100.00
74163;BME280;62515;52.758;5.076;2023-02-20T00:34:09;102384.19;;;5.82;100.00
74163;BME280;62515;52.758;5.076;2023-02-20T00:36:36;102374.53;;;5.79;100.00
74163;BME280;62515;52.758;5.076;2023-02-20T00:39:05;102373.75;;;5.75;100.00
74163;BME280;62515;52.758;5.076;2023-02-20T00:41:31;102369.41;;;5.74;100.00
74163;BME280;62515;52.758;5.076;2023-02-20T00:44:06;102355.44;;;5.69;100.00
74163;BME280;62515;52.758;5.076;2023-02-20T00:46:35;102345.72;;;5.71;100.00
74163;BME280;62515;52.758;5.076;2023-02-20T00:49:02;102343.78;;;5.76;100.00
74163;BME280;62515;52.758;5.076;2023-02-20T00:51:44;102323.44;;;5.80;100.00
74163;BME280;62515;52.758;5.076;2023-02-20T00:54:11;102320.03;;;5.76;100.00
74163;BME280;62515;52.758;5.076;2023-02-20T00:56:38;102319.81;;;5.84;100.00
74163;BME280;62515;52.758;5.076;2023-02-20T00:59:05;102322.47;;;5.84;100.00
74163;BME280;62515;52.758;5.076;2023-02-20T01:01:32;102336.53;;;5.85;100.00
74163;BME280;62515;52.758;5.076;2023-02-20T01:04:00;102333.91;;;5.85;100.00
74163;BME280;62515;52.758;5.076;2023-02-20T01:06:27;102332.09;;;5.87;100.00
74163;BME280;62515;52.758;5.076;2023-02-20T01:08:54;102346.22;;;5.86;100.00
74163;BME280;62515;52.758;5.076;2023-02-20T01:11:21;102332.91;;;5.89;100.00
74163;BME280;62515;52.758;5.076;2023-02-20T01:13:48;102333.53;;;5.98;100.00
74163;BME280;62515;52.758;5.076;2023-02-20T01:16:15;102325.47;;;6.03;100.00
74163;BME280;62515;52.758;5.076;2023-02-20T01:18:42;102314.59;;;6.13;100.00
74163;BME280;62515;52.758;5.076;2023-02-20T01:21:10;102305.59;;;6.19;100.00
74163;BME280;62515;52.758;5.076;2023-02-20T01:23:36;102306.94;;;6.34;100.00
74163;BME280;62515;52.758;5.076;2023-02-20T01:26:03;102307.84;;;6.31;100.00
74163;BME280;62515;52.758;5.076;2023-02-20T01:28:30;102300.69;;;6.35;100.00
74163;BME280;62515;52.758;5.076;2023-02-20T01:30:57;102297.84;;;6.42;100.00
74163;BME280;62515;52.758;5.076;2023-02-20T01:33:24;102289.81;;;6.45;100.00
74163;BME280;62515;52.758;5.076;2023-02-20T01:35:50;102288.69;;;6.52;100.00
74163;BME280;62515;52.758;5.076;2023-02-20T01:38:21;102290.25;;;6.59;100.00
74163;BME280;62515;52.758;5.076;2023-02-20T01:40:48;102285.66;;;6.64;100.00
74163;BME280;62515;52.758;5.076;2023-02-20T01:43:16;102289.19;;;6.63;100.00
74163;BME280;62515;52.758;5.076;2023-02-20T01:45:43;102275.13;;;6.63;100.00
74163;BME280;62515;52.758;5.076;2023-02-20T01:48:19;102276.91;;;6.62;100.00
74163;BME280;62515;52.758;5.076;2023-02-20T01:50:49;102261.06;;;6.61;100.00
74163;BME280;62515;52.758;5.076;2023-02-20T01:53:22;102266.47;;;6.58;100.00
74163;BME280;62515;52.758;5.076;2023-02-20T01:55:52;102263.78;;;6.59;100.00
74163;BME280;62515;52.758;5.076;2023-02-20T01:58:21;102260.84;;;6.68;100.00
74163;BME280;62515;52.758;5.076;2023-02-20T02:00:49;102268.88;;;6.65;100.00
74163;BME280;62515;52.758;5.076;2023-02-20T02:03:19;102255.41;;;6.73;100.00
74163;BME280;62515;52.758;5.076;2023-02-20T02:05:51;102253.56;;;6.75;100.00
74163;BME280;62515;52.758;5.076;2023-02-20T02:08:21;102253.81;;;6.67;100.00
74163;BME280;62515;52.758;5.076;2023-02-20T02:10:55;102250.19;;;6.70;100.00
74163;BME280;62515;52.758;5.076;2023-02-20T02:13:24;102254.63;;;6.69;100.00
74163;BME280;62515;52.758;5.076;2023-02-20T02:16:00;102251.16;;;6.67;100.00
74163;BME280;62515;52.758;5.076;2023-02-20T02:18:48;102243.13;;;6.70;100.00
74163;BME280;62515;52.758;5.076;2023-02-20T02:21:39;102238.03;;;6.64;100.00
74163;BME280;62515;52.758;5.076;2023-02-20T02:24:27;102229.34;;;6.61;100.00
74163;BME280;62515;52.758;5.076;2023-02-20T02:27:42;102229.19;;;6.65;100.00
74163;BME280;62515;52.758;5.076;2023-02-20T02:30:34;102225.66;;;6.66;100.00
74163;BME280;62515;52.758;5.076;2023-02-20T02:36:36;102222.16;;;6.64;100.00
74163;BME280;62515;52.758;5.076;2023-02-20T02:39:14;102211.44;;;6.69;100.00
74163;BME280;62515;52.758;5.076;2023-02-20T02:41:46;102209.13;;;6.60;100.00
74163;BME280;62515;52.758;5.076;2023-02-20T02:44:19;102210.03;;;6.59;100.00
74163;BME280;62515;52.758;5.076;2023-02-20T02:46:54;102215.91;;;6.67;100.00
74163;BME280;62515;52.758;5.076;2023-02-20T02:49:25;102216.97;;;6.61;100.00
74163;BME280;62515;52.758;5.076;2023-02-20T02:51:58;102204.97;;;6.77;100.00
74163;BME280;62515;52.758;5.076;2023-02-20T02:54:26;102205.50;;;6.87;100.00
74163;BME280;62515;52.758;5.076;2023-02-20T02:57:15;102208.16;;;6.87;100.00
74163;BME280;62515;52.758;5.076;2023-02-20T02:59:44;102201.19;;;6.84;100.00
74163;BME280;62515;52.758;5.076;2023-02-20T03:02:14;102202.88;;;6.87;100.00
74163;BME280;62515;52.758;5.076;2023-02-20T03:04:45;102217.06;;;6.84;100.00
74163;BME280;62515;52.758;5.076;2023-02-20T03:07:16;102190.47;;;6.89;100.00
74163;BME280;62515;52.758;5.076;2023-02-20T03:09:47;102203.84;;;6.84;100.00
74163;BME280;62515;52.758;5.076;2023-02-20T03:12:17;102186.72;;;6.95;100.00
74163;BME280;62515;52.758;5.076;2023-02-20T03:14:51;102185.97;;;6.91;100.00
74163;BME280;62515;52.758;5.076;2023-02-20T03:17:27;102196.56;;;6.91;100.00
74163;BME280;62515;52.758;5.076;2023-02-20T03:19:58;102194.81;;;6.90;100.00
74163;BME280;62515;52.758;5.076;2023-02-20T03:22:30;102188.88;;;6.83;100.00
74163;BME280;62515;52.758;5.076;2023-02-20T03:25:03;102180.25;;;6.78;100.00
74163;BME280;62515;52.758;5.076;2023-02-20T03:27:38;102187.31;;;6.78;100.00
74163;BME280;62515;52.758;5.076;2023-02-20T03:30:13;102191.72;;;6.77;100.00
74163;BME280;62515;52.758;5.076;2023-02-20T03:32:42;102191.94;;;6.71;100.00
74163;BME280;62515;52.758;5.076;2023-02-20T03:35:10;102189.41;;;6.68;100.00
74163;BME280;62515;52.758;5.076;2023-02-20T03:37:42;102188.50;;;6.69;100.00
74163;BME280;62515;52.758;5.076;2023-02-20T03:40:12;102178.69;;;6.73;100.00
74163;BME280;62515;52.758;5.076;2023-02-20T03:42:45;102189.19;;;6.74;100.00
74163;BME280;62515;52.758;5.076;2023-02-20T03:45:24;102178.50;;;6.77;100.00
74163;BME280;62515;52.758;5.076;2023-02-20T03:47:56;102181.25;;;6.74;100.00
74163;BME280;62515;52.758;5.076;2023-02-20T03:50:26;102179.63;;;6.70;100.00
74163;BME280;62515;52.758;5.076;2023-02-20T03:52:57;102174.03;;;6.79;100.00
74163;BME280;62515;52.758;5.076;2023-02-20T03:55:24;102165.47;;;6.73;100.00
74163;BME280;62515;52.758;5.076;2023-02-20T03:57:56;102160.97;;;6.75;100.00
74163;BME280;62515;52.758;5.076;2023-02-20T04:00:30;102161.09;;;6.70;100.00
74163;BME280;62515;52.758;5.076;2023-02-20T04:03:06;102162.84;;;6.71;100.00
74163;BME280;62515;52.758;5.076;2023-02-20T04:05:40;102161.09;;;6.70;100.00
74163;BME280;62515;52.758;5.076;2023-02-20T04:08:13;102154.88;;;6.73;100.00
74163;BME280;62515;52.758;5.076;2023-02-20T04:10:44;102149.47;;;6.76;100.00
74163;BME280;62515;52.758;5.076;2023-02-20T04:13:14;102132.84;;;6.72;100.00
74163;BME280;62515;52.758;5.076;2023-02-20T04:15:47;102134.53;;;6.73;100.00
74163;BME280;62515;52.758;5.076;2023-02-20T04:18:17;102128.50;;;6.70;100.00
74163;BME280;62515;52.758;5.076;2023-02-20T04:20:48;102120.53;;;6.71;100.00
74163;BME280;62515;52.758;5.076;2023-02-20T04:23:31;102124.06;;;6.70;100.00
74163;BME280;62515;52.758;5.076;2023-02-20T04:26:04;102125.94;;;6.68;100.00
74163;BME280;62515;52.758;5.076;2023-02-20T04:28:35;102112.47;;;6.74;100.00
74163;BME280;62515;52.758;5.076;2023-02-20T04:31:05;102111.47;;;6.78;100.00
74163;BME280;62515;52.758;5.076;2023-02-20T04:33:34;102121.06;;;6.81;100.00
74163;BME280;62515;52.758;5.076;2023-02-20T04:36:07;102117.50;;;6.82;100.00
74163;BME280;62515;52.758;5.076;2023-02-20T04:38:36;102130.56;;;6.87;100.00
74163;BME280;62515;52.758;5.076;2023-02-20T04:41:06;102116.75;;;6.78;100.00
74163;BME280;62515;52.758;5.076;2023-02-20T04:43:33;102125.47;;;6.80;100.00
74163;BME280;62515;52.758;5.076;2023-02-20T04:46:04;102119.31;;;6.80;100.00
74163;BME280;62515;52.758;5.076;2023-02-20T04:48:33;102114.03;;;6.80;100.00
74163;BME280;62515;52.758;5.076;2023-02-20T04:51:01;102123.66;;;6.82;100.00
74163;BME280;62515;52.758;5.076;2023-02-20T04:53:30;102117.44;;;6.83;100.00
74163;BME280;62515;52.758;5.076;2023-02-20T04:55:59;102130.78;;;6.80;100.00
74163;BME280;62515;52.758;5.076;2023-02-20T04:58:26;102128.88;;;6.84;100.00
74163;BME280;62515;52.758;5.076;2023-02-20T05:01:00;102124.50;;;6.83;100.00
74163;BME280;62515;52.758;5.076;2023-02-20T05:03:27;102142.19;;;6.82;100.00
74163;BME280;62515;52.758;5.076;2023-02-20T05:05:54;102133.41;;;6.80;100.00
74163;BME280;62515;52.758;5.076;2023-02-20T05:08:21;102134.13;;;6.86;100.00
74163;BME280;62515;52.758;5.076;2023-02-20T05:10:48;102147.47;;;6.82;100.00
74163;BME280;62515;52.758;5.076;2023-02-20T05:13:16;102137.81;;;6.81;100.00
74163;BME280;62515;52.758;5.076;2023-02-20T05:15:43;102137.69;;;6.84;100.00
74163;BME280;62515;52.758;5.076;2023-02-20T05:18:10;102140.34;;;6.84;100.00
74163;BME280;62515;52.758;5.076;2023-02-20T05:20:37;102139.66;;;6.79;100.00
74163;BME280;62515;52.758;5.076;2023-02-20T05:23:03;102135.28;;;6.78;100.00
74163;BME280;62515;52.758;5.076;2023-02-20T05:25:30;102145.03;;;6.76;100.00
74163;BME280;62515;52.758;5.076;2023-02-20T05:27:57;102136.28;;;6.74;100.00
74163;BME280;62515;52.758;5.076;2023-02-20T05:30:25;102138.91;;;6.76;100.00
74163;BME280;62515;52.758;5.076;2023-02-20T05:32:52;102139.72;;;6.76;100.00
74163;BME280;62515;52.758;5.076;2023-02-20T05:35:19;102138.81;;;6.77;100.00
74163;BME280;62515;52.758;5.076;2023-02-20T05:37:45;102130.00;;;6.77;100.00
74163;BME280;62515;52.758;5.076;2023-02-20T05:40:12;102128.47;;;6.71;100.00
74163;BME280;62515;52.758;5.076;2023-02-20T05:42:40;102118.91;;;6.67;100.00
74163;BME280;62515;52.758;5.076;2023-02-20T05:45:07;102114.81;;;6.59;100.00
74163;BME280;62515;52.758;5.076;2023-02-20T05:47:37;102119.13;;;6.61;100.00
74163;BME280;62515;52.758;5.076;2023-02-20T05:50:04;102129.84;;;6.57;100.00
74163;BME280;62515;52.758;5.076;2023-02-20T05:52:31;102125.28;;;6.62;100.00
74163;BME280;62515;52.758;5.076;2023-02-20T05:54:58;102118.31;;;6.59;100.00
74163;BME280;62515;52.758;5.076;2023-02-20T05:57:24;102104.22;;;6.59;100.00
74163;BME280;62515;52.758;5.076;2023-02-20T05:59:51;102117.44;;;6.59;100.00
74163;BME280;62515;52.758;5.076;2023-02-20T06:02:18;102106.75;;;6.62;100.00
74163;BME280;62515;52.758;5.076;2023-02-20T06:04:46;102118.31;;;6.59;100.00
74163;BME280;62515;52.758;5.076;2023-02-20T06:07:13;102101.41;;;6.63;100.00
74163;BME280;62515;52.758;5.076;2023-02-20T06:09:41;102098.69;;;6.66;100.00
74163;BME280;62515;52.758;5.076;2023-02-20T06:12:09;102107.56;;;6.64;100.00
74163;BME280;62515;52.758;5.076;2023-02-20T06:14:36;102109.41;;;6.62;100.00
74163;BME280;62515;52.758;5.076;2023-02-20T06:17:02;102104.97;;;6.62;100.00
74163;BME280;62515;52.758;5.076;2023-02-20T06:19:29;102113.72;;;6.64;100.00
74163;BME280;62515;52.758;5.076;2023-02-20T06:21:57;102109.28;;;6.65;100.00
74163;BME280;62515;52.758;5.076;2023-02-20T06:24:24;102097.38;;;6.53;100.00
74163;BME280;62515;52.758;5.076;2023-02-20T06:26:51;102107.50;;;6.65;100.00
74163;BME280;62515;52.758;5.076;2023-02-20T06:29:20;102104.03;;;6.63;100.00
74163;BME280;62515;52.758;5.076;2023-02-20T06:31:49;102106.50;;;6.69;100.00
74163;BME280;62515;52.758;5.076;2023-02-20T06:34:20;102109.16;;;6.69;100.00
74163;BME280;62515;52.758;5.076;2023-02-20T06:36:46;102112.91;;;6.62;100.00
74163;BME280;62515;52.758;5.076;2023-02-20T06:39:15;102119.00;;;6.64;100.00
74163;BME280;62515;52.758;5.076;2023-02-20T06:41:42;102111.84;;;6.68;100.00
74163;BME280;62515;52.758;5.076;2023-02-20T06:44:47;102110.38;;;6.59;100.00
74163;BME280;62515;52.758;5.076;2023-02-20T06:47:14;102117.09;;;6.69;100.00
74163;BME280;62515;52.758;5.076;2023-02-20T06:49:43;102127.16;;;6.83;100.00
74163;BME280;62515;52.758;5.076;2023-02-20T06:52:10;102116.41;;;6.88;100.00
74163;BME280;62515;52.758;5.076;2023-02-20T06:54:38;102123.34;;;6.92;100.00
74163;BME280;62515;52.758;5.076;2023-02-20T06:57:05;102119.81;;;6.91;100.00
74163;BME280;62515;52.758;5.076;2023-02-20T06:59:32;102105.56;;;6.95;100.00
74163;BME280;62515;52.758;5.076;2023-02-20T07:01:59;102112.63;;;6.95;100.00
74163;BME280;62515;52.758;5.076;2023-02-20T07:04:26;102118.03;;;6.92;100.00
74163;BME280;62515;52.758;5.076;2023-02-20T07:06:54;102109.13;;;6.94;100.00
74163;BME280;62515;52.758;5.076;2023-02-20T07:09:21;102095.88;;;6.94;100.00
74163;BME280;62515;52.758;5.076;2023-02-20T07:11:51;102106.25;;;7.00;100.00
74163;BME280;62515;52.758;5.076;2023-02-20T07:14:17;102112.41;;;7.01;100.00
74163;BME280;62515;52.758;5.076;2023-02-20T07:16:44;102115.56;;;7.10;100.00
74163;BME280;62515;52.758;5.076;2023-02-20T07:19:11;102128.66;;;7.15;100.00
74163;BME280;62515;52.758;5.076;2023-02-20T07:21:38;102120.47;;;7.21;100.00
74163;BME280;62515;52.758;5.076;2023-02-20T07:24:06;102128.13;;;7.28;100.00
74163;BME280;62515;52.758;5.076;2023-02-20T07:26:33;102126.56;;;7.23;100.00
74163;BME280;62515;52.758;5.076;2023-02-20T07:29:01;102131.59;;;7.30;100.00
74163;BME280;62515;52.758;5.076;2023-02-20T07:31:28;102125.19;;;7.36;100.00
74163;BME280;62515;52.758;5.076;2023-02-20T07:33:56;102136.53;;;7.40;100.00
74163;BME280;62515;52.758;5.076;2023-02-20T07:36:24;102132.00;;;7.43;100.00
74163;BME280;62515;52.758;5.076;2023-02-20T07:38:54;102139.84;;;7.45;100.00
74163;BME280;62515;52.758;5.076;2023-02-20T07:41:22;102135.19;;;7.51;100.00
74163;BME280;62515;52.758;5.076;2023-02-20T07:43:48;102128.00;;;7.55;100.00
74163;BME280;62515;52.758;5.076;2023-02-20T07:46:16;102119.13;;;7.56;100.00
74163;BME280;62515;52.758;5.076;2023-02-20T07:48:46;102126.34;;;7.52;100.00
74163;BME280;62515;52.758;5.076;2023-02-20T07:51:13;102129.69;;;7.57;100.00
74163;BME280;62515;52.758;5.076;2023-02-20T07:53:46;102126.72;;;7.65;100.00
74163;BME280;62515;52.758;5.076;2023-02-20T07:56:13;102129.31;;;7.66;100.00
74163;BME280;62515;52.758;5.076;2023-02-20T07:58:40;102131.16;;;7.64;100.00
74163;BME280;62515;52.758;5.076;2023-02-20T08:01:07;102132.72;;;7.70;100.00
74163;BME280;62515;52.758;5.076;2023-02-20T08:03:36;102147.88;;;7.66;100.00
74163;BME280;62515;52.758;5.076;2023-02-20T08:06:03;102126.59;;;7.68;100.00
74163;BME280;62515;52.758;5.076;2023-02-20T08:08:30;102141.56;;;7.69;100.00
74163;BME280;62515;52.758;5.076;2023-02-20T08:10:57;102142.25;;;7.74;100.00
74163;BME280;62515;52.758;5.076;2023-02-20T08:13:34;102144.28;;;7.67;100.00
74163;BME280;62515;52.758;5.076;2023-02-20T08:16:01;102147.00;;;7.66;100.00
74163;BME280;62515;52.758;5.076;2023-02-20T08:18:28;102139.09;;;7.64;100.00
74163;BME280;62515;52.758;5.076;2023-02-20T08:20:56;102132.97;;;7.64;100.00
74163;BME280;62515;52.758;5.076;2023-02-20T08:23:23;102124.13;;;7.63;100.00
74163;BME280;62515;52.758;5.076;2023-02-20T08:25:50;102130.81;;;7.73;100.00
74163;BME280;62515;52.758;5.076;2023-02-20T08:28:17;102128.91;;;7.77;100.00
74163;BME280;62515;52.758;5.076;2023-02-20T08:30:44;102139.44;;;7.78;100.00
74163;BME280;62515;52.758;5.076;2023-02-20T08:33:11;102139.38;;;7.80;100.00
74163;BME280;62515;52.758;5.076;2023-02-20T08:35:38;102134.88;;;7.82;100.00
74163;BME280;62515;52.758;5.076;2023-02-20T08:38:19;102137.53;;;7.82;100.00
74163;BME280;62515;52.758;5.076;2023-02-20T08:40:47;102134.00;;;7.81;100.00
74163;BME280;62515;52.758;5.076;2023-02-20T08:43:14;102138.50;;;7.79;100.00
74163;BME280;62515;52.758;5.076;2023-02-20T08:45:41;102130.31;;;7.85;100.00
74163;BME280;62515;52.758;5.076;2023-02-20T08:48:08;102121.13;;;7.94;100.00
74163;BME280;62515;52.758;5.076;2023-02-20T08:50:35;102116.31;;;8.04;100.00
74163;BME280;62515;52.758;5.076;2023-02-20T08:53:02;102110.25;;;8.00;100.00
74163;BME280;62515;52.758;5.076;2023-02-20T08:55:30;102123.53;;;8.00;100.00
74163;BME280;62515;52.758;5.076;2023-02-20T08:57:57;102109.47;;;7.98;100.00
74163;BME280;62515;52.758;5.076;2023-02-20T09:00:23;102102.00;;;8.08;100.00
74163;BME280;62515;52.758;5.076;2023-02-20T09:02:50;102095.53;;;8.15;100.00
74163;BME280;62515;52.758;5.076;2023-02-20T09:05:18;102097.00;;;8.22;100.00
74163;BME280;62515;52.758;5.076;2023-02-20T09:07:44;102086.19;;;8.28;100.00
74163;BME280;62515;52.758;5.076;2023-02-20T09:10:11;102104.59;;;8.31;100.00
74163;BME280;62515;52.758;5.076;2023-02-20T09:12:40;102113.44;;;8.31;100.00
74163;BME280;62515;52.758;5.076;2023-02-20T09:15:08;102106.69;;;8.45;100.00
74163;BME280;62515;52.758;5.076;2023-02-20T09:17:34;102106.19;;;8.55;100.00
74163;BME280;62515;52.758;5.076;2023-02-20T09:20:01;102100.53;;;8.64;100.00
74163;BME280;62515;52.758;5.076;2023-02-20T09:22:28;102082.44;;;8.72;100.00
74163;BME280;62515;52.758;5.076;2023-02-20T09:24:55;102078.44;;;8.64;100.00
74163;BME280;62515;52.758;5.076;2023-02-20T09:27:22;102081.06;;;8.64;100.00
74163;BME280;62515;52.758;5.076;2023-02-20T09:29:50;102077.16;;;8.72;100.00
74163;BME280;62515;52.758;5.076;2023-02-20T09:32:17;102091.81;;;8.61;100.00
74163;BME280;62515;52.758;5.076;2023-02-20T09:34:44;102098.50;;;8.69;100.00
74163;BME280;62515;52.758;5.076;2023-02-20T09:37:11;102089.53;;;8.72;100.00
74163;BME280;62515;52.758;5.076;2023-02-20T09:39:38;102090.00;;;8.81;100.00
74163;BME280;62515;52.758;5.076;2023-02-20T09:42:16;102081.19;;;8.81;100.00
74163;BME280;62515;52.758;5.076;2023-02-20T09:44:55;102085.31;;;8.68;100.00
74163;BME280;62515;52.758;5.076;2023-02-20T09:47:41;102080.84;;;8.68;100.00
74163;BME280;62515;52.758;5.076;2023-02-20T09:50:13;102065.16;;;8.64;100.00
74163;BME280;62515;52.758;5.076;2023-02-20T09:52:43;102075.31;;;8.74;100.00
74163;BME280;62515;52.758;5.076;2023-02-20T09:55:16;102073.94;;;8.84;100.00
74163;BME280;62515;52.758;5.076;2023-02-20T09:57:47;102074.63;;;8.89;100.00
74163;BME280;62515;52.758;5.076;2023-02-20T10:00:21;102087.34;;;8.81;100.00
74163;BME280;62515;52.758;5.076;2023-02-20T10:02:54;102085.28;;;8.88;100.00
74163;BME280;62515;52.758;5.076;2023-02-20T10:05:25;102077.25;;;8.89;100.00
74163;BME280;62515;52.758;5.076;2023-02-20T10:07:53;102095.75;;;8.91;100.00
74163;BME280;62515;52.758;5.076;2023-02-20T10:10:24;102107.38;;;9.09;100.00
74163;BME280;62515;52.758;5.076;2023-02-20T10:13:00;102098.75;;;9.04;100.00
74163;BME280;62515;52.758;5.076;2023-02-20T10:15:36;102099.44;;;9.07;100.00
74163;BME280;62515;52.758;5.076;2023-02-20T10:18:14;102097.53;;;9.11;100.00
74163;BME280;62515;52.758;5.076;2023-02-20T10:20:49;102086.69;;;9.15;100.00
74163;BME280;62515;52.758;5.076;2023-02-20T10:23:29;102085.97;;;9.12;100.00
74163;BME280;62515;52.758;5.076;2023-02-20T10:26:02;102104.44;;;9.15;100.00
74163;BME280;62515;52.758;5.076;2023-02-20T10:28:32;102106.34;;;9.11;100.00
74163;BME280;62515;52.758;5.076;2023-02-20T10:31:06;102104.50;;;9.13;100.00
74163;BME280;62515;52.758;5.076;2023-02-20T10:33:37;102088.72;;;9.10;100.00
74163;BME280;62515;52.758;5.076;2023-02-20T10:36:10;102087.13;;;9.25;100.00
74163;BME280;62515;52.758;5.076;2023-02-20T10:38:45;102072.78;;;9.29;100.00
74163;BME280;62515;52.758;5.076;2023-02-20T10:41:19;102074.00;;;9.22;100.00
74163;BME280;62515;52.758;5.076;2023-02-20T10:44:00;102082.53;;;9.28;100.00
74163;BME280;62515;52.758;5.076;2023-02-20T10:46:35;102081.38;;;9.34;100.00
74163;BME280;62515;52.758;5.076;2023-02-20T10:49:17;102065.00;;;9.43;100.00
74163;BME280;62515;52.758;5.076;2023-02-20T10:51:47;102070.59;;;9.74;100.00
74163;BME280;62515;52.758;5.076;2023-02-20T10:54:18;102068.44;;;9.64;100.00
74163;BME280;62515;52.758;5.076;2023-02-20T10:56:53;102088.00;;;9.44;100.00
74163;BME280;62515;52.758;5.076;2023-02-20T10:59:25;102083.50;;;9.46;100.00
74163;BME280;62515;52.758;5.076;2023-02-20T11:01:58;102096.69;;;9.48;100.00
74163;BME280;62515;52.758;5.076;2023-02-20T11:04:31;102105.53;;;9.48;100.00
74163;BME280;62515;52.758;5.076;2023-02-20T11:07:02;102114.72;;;9.41;100.00
74163;BME280;62515;52.758;5.076;2023-02-20T11:09:31;102089.78;;;9.25;100.00
74163;BME280;62515;52.758;5.076;2023-02-20T11:11:58;102099.34;;;9.29;100.00
74163;BME280;62515;52.758;5.076;2023-02-20T11:14:31;102095.75;;;9.30;100.00
74163;BME280;62515;52.758;5.076;2023-02-20T11:17:11;102100.78;;;9.36;100.00
74163;BME280;62515;52.758;5.076;2023-02-20T11:19:41;102096.56;;;9.32;100.00
74163;BME280;62515;52.758;5.076;2023-02-20T11:22:10;102091.59;;;9.24;100.00
74163;BME280;62515;52.758;5.076;2023-02-20T11:24:39;102077.28;;;9.27;100.00
74163;BME280;62515;52.758;5.076;2023-02-20T11:27:10;102087.72;;;9.31;100.00
74163;BME280;62515;52.758;5.076;2023-02-20T11:29:47;102072.34;;;9.38;100.00
74163;BME280;62515;52.758;5.076;2023-02-20T11:32:28;102082.69;;;9.44;100.00
74163;BME280;62515;52.758;5.076;2023-02-20T11:35:13;102086.94;;;9.48;100.00
74163;BME280;62515;52.758;5.076;2023-02-20T11:37:42;102109.41;;;9.41;100.00
74163;BME280;62515;52.758;5.076;2023-02-20T11:40:23;102093.03;;;9.50;100.00
74163;BME280;62515;52.758;5.076;2023-02-20T11:42:52;102096.34;;;9.55;100.00
74163;BME280;62515;52.758;5.076;2023-02-20T11:45:22;102096.34;;;9.55;100.00
74163;BME280;62515;52.758;5.076;2023-02-20T11:48:06;102110.25;;;9.41;100.00
74163;BME280;62515;52.758;5.076;2023-02-20T11:50:38;102092.00;;;9.34;100.00
74163;BME280;62515;52.758;5.076;2023-02-20T11:53:05;102116.50;;;9.40;100.00
74163;BME280;62515;52.758;5.076;2023-02-20T11:55:33;102108.81;;;9.34;100.00
74163;BME280;62515;52.758;5.076;2023-02-20T11:58:10;102098.91;;;9.38;100.00
74163;BME280;62515;52.758;5.076;2023-02-20T12:00:48;102099.06;;;9.35;100.00
74163;BME280;62515;52.758;5.076;2023-02-20T12:03:20;102093.31;;;9.44;100.00
74163;BME280;62515;52.758;5.076;2023-02-20T12:05:48;102070.09;;;9.66;100.00
74163;BME280;62515;52.758;5.076;2023-02-20T12:08:30;102067.63;;;9.80;100.00
74163;BME280;62515;52.758;5.076;2023-02-20T12:11:07;102080.00;;;9.81;100.00
74163;BME280;62515;52.758;5.076;2023-02-20T12:13:38;102070.41;;;9.96;100.00
74163;BME280;62515;52.758;5.076;2023-02-20T12:16:23;102063.28;;;9.96;100.00
74163;BME280;62515;52.758;5.076;2023-02-20T12:18:54;102058.09;;;9.76;100.00
74163;BME280;62515;52.758;5.076;2023-02-20T12:21:35;102051.34;;;9.69;100.00
74163;BME280;62515;52.758;5.076;2023-02-20T12:24:11;102059.28;;;9.88;100.00
74163;BME280;62515;52.758;5.076;2023-02-20T12:26:49;102058.53;;;9.67;100.00
74163;BME280;62515;52.758;5.076;2023-02-20T12:29:37;102061.81;;;9.72;100.00
74163;BME280;62515;52.758;5.076;2023-02-20T12:32:24;102053.31;;;9.83;100.00
74163;BME280;62515;52.758;5.076;2023-02-20T12:35:01;102046.44;;;10.32;100.00
74163;BME280;62515;52.758;5.076;2023-02-20T12:37:39;102045.97;;;10.41;100.00
74163;BME280;62515;52.758;5.076;2023-02-20T12:40:29;102048.22;;;10.48;100.00
74163;BME280;62515;52.758;5.076;2023-02-20T12:43:07;102040.03;;;10.19;100.00
74163;BME280;62515;52.758;5.076;2023-02-20T12:45:40;102044.47;;;10.35;100.00
74163;BME280;62515;52.758;5.076;2023-02-20T12:48:21;102043.28;;;10.58;100.00
74163;BME280;62515;52.758;5.076;2023-02-20T12:51:05;102042.31;;;10.76;100.00
74163;BME280;62515;52.758;5.076;2023-02-20T12:54:00;102050.81;;;10.83;100.00
74163;BME280;62515;52.758;5.076;2023-02-20T12:56:47;102040.28;;;10.64;100.00
74163;BME280;62515;52.758;5.076;2023-02-20T12:59:23;102034.69;;;10.53;100.00
74163;BME280;62515;52.758;5.076;2023-02-20T13:01:52;102067.56;;;10.52;100.00
74163;BME280;62515;52.758;5.076;2023-02-20T13:04:26;102056.06;;;10.52;100.00
74163;BME280;62515;52.758;5.076;2023-02-20T13:07:03;102046.41;;;10.66;100.00
74163;BME280;62515;52.758;5.076;2023-02-20T13:09:34;102055.00;;;10.71;100.00
74163;BME280;62515;52.758;5.076;2023-02-20T13:12:06;102033.00;;;10.68;100.00
74163;BME280;62515;52.758;5.076;2023-02-20T13:14:54;102053.59;;;10.64;100.00